Time;durP1;ratioP1;P1;durP2;ratioP2;P2;SDS_P1;SDS_P2;PMS_P1;PMS_P2;Temp;Humidity;BMP_temperature;BMP_pressure;BME280_temperature;BME280_humidity;BME280_pressure;Samples;Min_cycle;Max_cycle;Signal;HPM_P1;HPM_P2
2024/03/12 00:00:53;;;;;;;0.00;0.00;;;;;;;6.14;100.00;100054.59;6222931;23;20012;-74
2024/03/12 00:03:19;;;;;;;0.00;0.00;;;;;;;5.97;100.00;100044.53;6196732;23;20032;-74
2024/03/12 00:05:45;;;;;;;0.10;0.10;;;;;;;5.93;100.00;100065.06;6197728;23;19994;-74
2024/03/12 00:08:10;;;;;;;0.00;0.00;;;;;;;5.84;100.00;100066.50;6194960;23;20095;-74
2024/03/12 00:10:36;;;;;;;0.00;0.00;;;;;;;5.70;100.00;100058.69;6197504;23;20004;-75
2024/03/12 00:13:02;;;;;;;0.00;0.00;;;;;;;5.70;100.00;100066.81;6167715;23;20012;-73
2024/03/12 00:15:28;;;;;;;0.00;0.00;;;;;;;5.62;100.00;100045.50;6194556;23;20505;-72
2024/03/12 00:17:54;;;;;;;0.00;0.00;;;;;;;5.67;100.00;100051.03;6219484;23;20004;-72
2024/03/12 00:20:24;;;;;;;0.00;0.00;;;;;;;5.67;100.00;100053.75;6244122;23;20015;-72
2024/03/12 00:22:50;;;;;;;0.00;0.00;;;;;;;5.69;100.00;100054.31;6195602;23;20024;-73
2024/03/12 00:25:19;;;;;;;0.00;0.00;;;;;;;5.70;100.00;100055.97;6217541;23;20022;-73
2024/03/12 00:27:44;;;;;;;0.00;0.00;;;;;;;5.65;100.00;100050.47;6221544;23;20012;-72
2024/03/12 00:30:11;;;;;;;0.00;0.00;;;;;;;5.65;100.00;100050.47;6216684;23;20011;-73
2024/03/12 00:32:43;;;;;;;0.00;0.00;;;;;;;5.68;100.00;100052.69;6171157;23;20447;-73
2024/03/12 00:35:12;;;;;;;0.00;0.00;;;;;;;5.69;100.00;100046.16;6221527;23;20012;-74
2024/03/12 00:37:41;;;;;;;0.00;0.00;;;;;;;5.76;100.00;100056.88;6218581;23;20000;-73
2024/03/12 00:40:11;;;;;;;0.00;0.00;;;;;;;5.82;100.00;100053.19;6221038;23;20008;-74
2024/03/12 00:42:39;;;;;;;0.00;0.00;;;;;;;5.90;100.00;100052.00;6241652;23;20011;-73
2024/03/12 00:45:13;;;;;;;0.00;0.00;;;;;;;5.99;100.00;100058.69;6247360;23;20026;-72
2024/03/12 00:47:42;;;;;;;0.00;0.00;;;;;;;6.03;100.00;100068.00;6215423;23;20655;-73
2024/03/12 00:50:11;;;;;;;0.00;0.00;;;;;;;6.05;100.00;100055.00;6220439;23;20018;-71
2024/03/12 00:52:43;;;;;;;0.00;0.00;;;;;;;6.17;100.00;100062.25;6242529;23;20418;-72
2024/03/12 00:55:09;;;;;;;0.00;0.00;;;;;;;6.21;100.00;100055.25;6246680;23;20004;-73
2024/03/12 00:57:38;;;;;;;0.00;0.00;;;;;;;6.19;100.00;100046.53;6191275;23;20015;-73
2024/03/12 01:00:22;;;;;;;0.00;0.00;;;;;;;6.22;100.00;100067.75;6218459;23;20008;-73
2024/03/12 01:02:53;;;;;;;0.00;0.00;;;;;;;6.23;100.00;100058.53;6214476;23;20011;-73
2024/03/12 01:05:26;;;;;;;0.00;0.00;;;;;;;6.26;100.00;100058.06;6219783;23;20078;-72
2024/03/12 01:07:59;;;;;;;0.00;0.00;;;;;;;6.29;100.00;100057.56;6240918;23;20012;-73
2024/03/12 01:10:29;;;;;;;0.00;0.00;;;;;;;6.29;100.00;100043.97;6220854;23;20004;-73
2024/03/12 01:12:58;;;;;;;0.00;0.00;;;;;;;6.31;100.00;100044.56;6243666;22;20087;-73
2024/03/12 01:15:24;;;;;;;0.00;0.00;;;;;;;6.40;100.00;100064.00;6220504;23;20088;-73
2024/03/12 01:17:51;;;;;;;0.00;0.00;;;;;;;6.40;100.00;100064.00;6245311;22;20493;-74
2024/03/12 01:20:19;;;;;;;0.00;0.00;;;;;;;6.35;100.00;100051.16;6241914;22;19992;-74
2024/03/12 01:22:45;;;;;;;0.00;0.00;;;;;;;6.33;100.00;100047.03;6219914;23;19984;-74
2024/03/12 01:25:10;;;;;;;0.00;0.00;;;;;;;6.41;100.00;100061.03;6191189;23;20004;-73
2024/03/12 01:27:37;;;;;;;0.00;0.00;;;;;;;6.39;100.00;100055.00;6219846;23;20070;-72
2024/03/12 01:30:06;;;;;;;0.00;0.00;;;;;;;6.41;100.00;100050.16;6241262;23;20011;-73
2024/03/12 01:32:35;;;;;;;0.05;0.05;;;;;;;6.43;100.00;100052.63;6244151;22;20158;-73
2024/03/12 01:35:03;;;;;;;0.00;0.00;;;;;;;6.50;100.00;100063.31;6222175;23;20012;-73
2024/03/12 01:37:29;;;;;;;0.00;0.00;;;;;;;6.51;100.00;100054.09;6192383;23;20012;-73
2024/03/12 01:39:55;;;;;;;0.00;0.00;;;;;;;6.50;100.00;100049.72;6197356;23;20091;-72
2024/03/12 01:42:23;;;;;;;0.00;0.00;;;;;;;6.55;100.00;100055.25;6218577;23;20016;-72
2024/03/12 01:44:52;;;;;;;0.00;0.00;;;;;;;6.59;100.00;100057.22;6173485;23;20075;-73
2024/03/12 01:47:18;;;;;;;0.00;0.00;;;;;;;6.59;100.00;100043.63;6247083;23;19988;-73
2024/03/12 01:49:48;;;;;;;0.00;0.00;;;;;;;6.58;100.00;100049.31;6218398;23;20004;-72
2024/03/12 01:52:16;;;;;;;0.00;0.00;;;;;;;6.55;100.00;100038.94;6247712;23;20030;-73
2024/03/12 01:54:45;;;;;;;0.00;0.00;;;;;;;6.58;100.00;100039.25;6216889;23;20040;-72
2024/03/12 01:57:11;;;;;;;0.00;0.00;;;;;;;6.67;100.00;100041.56;6220724;23;20053;-73
2024/03/12 01:59:37;;;;;;;0.00;0.00;;;;;;;6.68;100.00;100038.59;6216233;23;21217;-73
2024/03/12 02:02:02;;;;;;;0.00;0.00;;;;;;;6.58;100.00;100017.53;6247935;23;20059;-74
2024/03/12 02:04:28;;;;;;;0.00;0.00;;;;;;;6.57;100.00;100005.03;6220176;23;20012;-73
2024/03/12 02:06:54;;;;;;;0.00;0.00;;;;;;;6.81;100.00;100043.66;6221339;23;20478;-72
2024/03/12 02:09:21;;;;;;;0.00;0.00;;;;;;;6.80;100.00;100025.75;6221193;23;20012;-73
2024/03/12 02:11:47;;;;;;;0.00;0.00;;;;;;;6.85;100.00;100021.44;6219405;23;19994;-73
2024/03/12 02:14:14;;;;;;;0.00;0.00;;;;;;;6.87;100.00;100024.72;6220721;22;20009;-74
2024/03/12 02:16:39;;;;;;;0.00;0.00;;;;;;;6.85;100.00;100021.44;6218383;23;20020;-72
2024/03/12 02:19:05;;;;;;;0.00;0.00;;;;;;;6.88;100.00;100026.34;6244905;22;20070;-73
2024/03/12 02:21:31;;;;;;;0.00;0.00;;;;;;;6.87;100.00;100022.00;6216853;23;20026;-74
2024/03/12 02:23:57;;;;;;;0.00;0.00;;;;;;;6.82;100.00;100015.44;6220427;22;20032;-73
2024/03/12 02:26:24;;;;;;;0.00;0.00;;;;;;;6.85;100.00;100016.00;6196673;22;20011;-74
2024/03/12 02:28:50;;;;;;;0.00;0.00;;;;;;;6.87;100.00;100024.72;6232220;22;20015;-77
2024/03/12 02:31:30;;;;;;;0.00;0.00;;;;;;;6.90;100.00;100018.78;6230673;22;20020;-74
2024/03/12 02:33:58;;;;;;;0.00;0.00;;;;;;;6.90;100.00;100016.88;6179152;23;20013;-73
2024/03/12 02:36:24;;;;;;;0.00;0.00;;;;;;;6.86;100.00;100006.78;6172908;23;20091;-71
2024/03/12 02:39:32;;;;;;;;;;;;;;;;;;;;;
2024/03/12 02:41:58;;;;;;;0.00;0.00;;;;;;;6.86;100.00;100007.59;6191384;23;20024;-77
2024/03/12 02:44:24;;;;;;;0.00;0.00;;;;;;;6.68;100.00;99978.81;6138357;23;20035;-77
2024/03/12 02:46:51;;;;;;;0.00;0.00;;;;;;;6.65;100.00;99979.31;6139740;23;20023;-78
2024/03/12 02:49:18;;;;;;;0.00;0.00;;;;;;;6.77;100.00;100004.47;6137448;23;20005;-76
2024/03/12 02:51:45;;;;;;;0.00;0.00;;;;;;;6.74;100.00;99999.53;6164284;23;20020;-76
2024/03/12 02:54:14;;;;;;;0.00;0.00;;;;;;;6.74;100.00;99994.13;6186902;23;20387;-76
2024/03/12 02:56:40;;;;;;;0.00;0.00;;;;;;;6.70;100.00;99986.72;6165685;23;20015;-76
2024/03/12 02:59:08;;;;;;;0.00;0.00;;;;;;;6.54;100.00;99955.78;6162973;23;20009;-77
2024/03/12 03:01:35;;;;;;;0.00;0.00;;;;;;;6.66;100.00;99980.97;6140141;23;20016;-76
2024/03/12 03:04:01;;;;;;;0.00;0.00;;;;;;;6.66;100.00;99991.84;6139029;23;20013;-77
2024/03/12 03:06:28;;;;;;;0.00;0.00;;;;;;;6.62;100.00;99979.81;6162338;23;20068;-77
2024/03/12 03:08:54;;;;;;;0.00;0.00;;;;;;;6.58;100.00;99967.81;6139175;23;20012;-76
2024/03/12 03:11:19;;;;;;;0.00;0.00;;;;;;;6.53;100.00;99976.72;6137141;23;20485;-76
2024/03/12 03:13:44;;;;;;;0.00;0.00;;;;;;;6.45;100.00;99967.13;6165059;23;19989;-78
2024/03/12 03:16:10;;;;;;;0.00;0.00;;;;;;;6.40;100.00;99958.88;6139298;23;20148;-76
2024/03/12 03:18:35;;;;;;;0.00;0.00;;;;;;;6.16;100.00;99922.13;6163160;23;20063;-76
2024/03/12 03:21:01;;;;;;;0.00;0.00;;;;;;;6.41;100.00;99963.25;6164499;23;20505;-77
2024/03/12 03:23:27;;;;;;;0.00;0.00;;;;;;;6.36;100.00;99965.88;6164180;23;20033;-76
2024/03/12 03:25:52;;;;;;;0.00;0.00;;;;;;;6.34;100.00;99959.03;6166411;23;20001;-78
2024/03/12 03:28:18;;;;;;;0.00;0.00;;;;;;;6.31;100.00;99954.94;6164817;23;20104;-78
2024/03/12 03:30:44;;;;;;;0.00;0.00;;;;;;;6.19;100.00;99938.75;6141155;23;19996;-78
2024/03/12 03:33:11;;;;;;;0.00;0.00;;;;;;;6.25;100.00;99948.63;6168235;23;20301;-78
2024/03/12 03:35:37;;;;;;;0.00;0.00;;;;;;;6.25;100.00;99948.63;6166848;23;20024;-77
2024/03/12 03:38:02;;;;;;;0.00;0.00;;;;;;;6.24;100.00;99952.41;6163866;23;20021;-77
2024/03/12 03:40:28;;;;;;;0.00;0.00;;;;;;;6.20;100.00;99939.56;6176513;23;20044;-77
2024/03/12 03:42:56;;;;;;;0.00;0.00;;;;;;;6.21;100.00;99938.50;6142881;23;20373;-78
2024/03/12 03:45:23;;;;;;;0.00;0.00;;;;;;;6.22;100.00;99932.00;6168097;23;20005;-76
2024/03/12 03:47:49;;;;;;;0.00;0.00;;;;;;;6.24;100.00;99936.09;6165069;23;20013;-76
2024/03/12 03:50:15;;;;;;;0.00;0.00;;;;;;;6.22;100.00;99926.56;6142493;23;20016;-76
2024/03/12 03:52:40;;;;;;;0.00;0.00;;;;;;;6.28;100.00;99936.44;6163768;23;20009;-75
2024/03/12 03:55:06;;;;;;;0.00;0.00;;;;;;;6.31;100.00;99930.50;6139890;23;20059;-76
2024/03/12 03:57:33;;;;;;;0.00;0.00;;;;;;;6.33;100.00;99922.94;6141917;23;20008;-77
2024/03/12 03:59:59;;;;;;;0.00;0.00;;;;;;;6.38;100.00;99914.84;6188096;23;20005;-77
2024/03/12 04:02:24;;;;;;;0.00;0.00;;;;;;;6.42;100.00;99910.53;6164955;23;20009;-77
2024/03/12 04:04:50;;;;;;;0.00;0.00;;;;;;;6.47;100.00;99905.19;6161638;23;20020;-76
2024/03/12 04:07:19;;;;;;;0.00;0.00;;;;;;;6.53;100.00;99908.81;6165382;23;20040;-76
2024/03/12 04:09:45;;;;;;;0.00;0.00;;;;;;;6.57;100.00;99900.97;6138380;23;20020;-76
2024/03/12 04:12:11;;;;;;;0.00;0.00;;;;;;;6.61;100.00;99891.22;6142151;23;20009;-76
2024/03/12 04:14:36;;;;;;;0.00;0.00;;;;;;;6.71;100.00;99901.41;6160178;23;20013;-76
2024/03/12 04:17:05;;;;;;;0.00;0.00;;;;;;;6.67;100.00;99884.78;6163857;23;20028;-77
2024/03/12 04:19:33;;;;;;;0.00;0.00;;;;;;;6.66;100.00;99885.88;6163664;23;20016;-77
2024/03/12 04:21:58;;;;;;;0.00;0.00;;;;;;;6.62;100.00;99887.44;6165223;23;20017;-77
2024/03/12 04:24:27;;;;;;;0.00;0.00;;;;;;;6.59;100.00;99885.25;6188124;23;20019;-75
2024/03/12 04:26:53;;;;;;;0.00;0.00;;;;;;;6.54;100.00;99874.31;6188101;23;20008;-77
2024/03/12 04:29:19;;;;;;;0.00;0.00;;;;;;;6.44;100.00;99859.53;6162845;23;20005;-76
2024/03/12 04:31:44;;;;;;;0.00;0.00;;;;;;;6.54;100.00;99867.00;6187554;23;20012;-75
2024/03/12 04:34:09;;;;;;;0.00;0.00;;;;;;;6.51;100.00;99855.78;6135093;23;20064;-76
2024/03/12 04:36:35;;;;;;;0.00;0.00;;;;;;;6.54;100.00;99852.56;6159987;23;20088;-76
2024/03/12 04:39:30;;;;;;;0.00;0.00;;;;;;;6.59;100.00;99855.34;6160054;23;20112;-75
2024/03/12 04:42:05;;;;;;;0.10;0.10;;;;;;;6.66;100.00;99855.16;6167207;23;20502;-75
2024/03/12 04:44:31;;;;;;;0.00;0.00;;;;;;;6.70;100.00;99851.69;6161390;23;20005;-75
2024/03/12 04:46:57;;;;;;;0.00;0.00;;;;;;;6.72;100.00;99832.41;6161866;23;20088;-75
2024/03/12 04:49:23;;;;;;;0.00;0.00;;;;;;;6.79;100.00;99838.44;6159462;23;20005;-75
2024/03/12 04:51:50;;;;;;;0.00;0.00;;;;;;;6.80;100.00;99829.22;6186041;23;19993;-77
2024/03/12 04:54:17;;;;;;;0.00;0.00;;;;;;;6.89;100.00;99837.75;6135643;23;20100;-77
2024/03/12 04:56:42;;;;;;;0.10;0.10;;;;;;;6.85;100.00;99820.31;6140278;23;20317;-76
2024/03/12 04:59:07;;;;;;;0.00;0.00;;;;;;;6.95;100.00;99828.56;6132318;23;20044;-75
2024/03/12 05:01:33;;;;;;;0.00;0.00;;;;;;;6.90;100.00;99812.22;6162223;23;20012;-78
2024/03/12 05:03:58;;;;;;;0.00;0.00;;;;;;;7.01;100.00;99813.97;6162910;23;20013;-78
2024/03/12 05:06:24;;;;;;;0.00;0.00;;;;;;;7.06;100.00;99822.16;6162138;23;20057;-77
2024/03/12 05:08:49;;;;;;;0.00;0.00;;;;;;;6.94;100.00;99783.44;6137679;23;20028;-78
2024/03/12 05:11:14;;;;;;;0.00;0.00;;;;;;;7.04;100.00;99797.13;6160675;23;20032;-77
2024/03/12 05:13:41;;;;;;;0.00;0.00;;;;;;;7.21;100.00;99812.50;6165418;23;19989;-77
2024/03/12 05:16:07;;;;;;;0.00;0.00;;;;;;;7.14;100.00;99791.78;6136482;23;20080;-77
2024/03/12 05:18:32;;;;;;;0.00;0.00;;;;;;;7.23;100.00;99791.28;6164749;23;20009;-77
2024/03/12 05:21:01;;;;;;;0.00;0.00;;;;;;;7.23;100.00;99783.13;6162668;23;20024;-78
2024/03/12 05:23:27;;;;;;;0.00;0.00;;;;;;;7.27;100.00;99785.09;6159757;23;20005;-77
2024/03/12 05:25:54;;;;;;;0.00;0.00;;;;;;;7.39;100.00;99798.50;6165080;23;20083;-78
2024/03/12 05:28:23;;;;;;;0.00;0.00;;;;;;;7.37;100.00;99781.63;6159546;23;20349;-77
2024/03/12 05:30:49;;;;;;;0.00;0.00;;;;;;;7.45;100.00;99792.03;6189510;23;20013;-76
2024/03/12 05:33:17;;;;;;;0.05;0.05;;;;;;;7.51;100.00;99799.13;6186361;23;20317;-77
2024/03/12 05:35:49;;;;;;;0.00;0.00;;;;;;;7.43;100.00;99764.28;6162322;23;20068;-77
2024/03/12 05:49:06;;;;;;;0.00;0.00;;;;;;;7.69;100.00;99775.31;6164010;23;19911;-77
2024/03/12 05:51:32;;;;;;;0.00;0.00;;;;;;;7.68;100.00;99768.22;6161746;23;20061;-76
2024/03/12 05:53:58;;;;;;;0.00;0.00;;;;;;;7.70;100.00;99763.34;6134950;23;20009;-77
2024/03/12 05:56:23;;;;;;;0.00;0.00;;;;;;;7.72;100.00;99765.81;6188042;23;20009;-78
2024/03/12 05:58:50;;;;;;;0.00;0.00;;;;;;;7.76;100.00;99764.19;6134565;23;20033;-77
2024/03/12 06:01:18;;;;;;;0.10;0.10;;;;;;;7.78;100.00;99762.88;6164018;23;20013;-76
2024/03/12 06:03:43;;;;;;;0.00;0.00;;;;;;;7.82;100.00;99763.13;6139185;23;20005;-76
2024/03/12 06:06:09;;;;;;;0.00;0.00;;;;;;;7.89;100.00;99780.06;6162903;23;20783;-77
2024/03/12 06:08:38;;;;;;;0.00;0.00;;;;;;;7.78;100.00;99751.97;6163984;23;20040;-78
2024/03/12 06:11:04;;;;;;;0.00;0.00;;;;;;;7.99;100.00;99779.31;6161926;23;20000;-78
2024/03/12 06:13:30;;;;;;;0.00;0.00;;;;;;;8.03;100.00;99774.94;6141015;23;20013;-76
2024/03/12 06:15:59;;;;;;;0.00;0.00;;;;;;;8.02;100.00;99770.59;6163989;23;20012;-78
2024/03/12 06:18:28;;;;;;;0.00;0.00;;;;;;;7.99;100.00;99747.44;6140803;23;20015;-77
2024/03/12 06:20:53;;;;;;;0.00;0.00;;;;;;;8.08;100.00;99749.66;6163686;23;20315;-78
2024/03/12 06:23:20;;;;;;;0.00;0.00;;;;;;;8.10;100.00;99748.28;6139806;23;20024;-77
2024/03/12 06:25:46;;;;;;;0.00;0.00;;;;;;;8.25;100.00;99753.00;6164724;23;20094;-77
2024/03/12 06:28:11;;;;;;;0.00;0.00;;;;;;;8.18;100.00;99742.34;6161952;23;20013;-78
2024/03/12 06:30:38;;;;;;;0.00;0.00;;;;;;;8.25;100.00;99744.84;6164225;23;20309;-77
2024/03/12 06:33:06;;;;;;;0.00;0.00;;;;;;;8.30;100.00;99744.84;6163693;23;20056;-78
2024/03/12 06:35:33;;;;;;;0.00;0.00;;;;;;;8.24;100.00;99726.84;6162316;23;20028;-76
2024/03/12 06:38:01;;;;;;;0.00;0.00;;;;;;;8.35;100.00;99727.69;6166263;23;20028;-76
2024/03/12 06:40:27;;;;;;;0.00;0.00;;;;;;;8.37;100.00;99730.97;6137519;23;20399;-78
2024/03/12 06:42:53;;;;;;;0.00;0.00;;;;;;;8.40;100.00;99735.88;6164497;23;20009;-76
2024/03/12 06:45:18;;;;;;;0.00;0.00;;;;;;;8.41;100.00;99725.78;6137800;23;20009;-77
2024/03/12 06:47:46;;;;;;;0.00;0.00;;;;;;;8.53;100.00;99740.84;6190926;23;20412;-78
2024/03/12 06:50:12;;;;;;;0.00;0.00;;;;;;;8.54;100.00;99742.50;6141340;23;20052;-76
2024/03/12 06:52:38;;;;;;;0.00;0.00;;;;;;;8.59;100.00;99727.25;6169906;23;20036;-77
2024/03/12 06:55:12;;;;;;;0.00;0.00;;;;;;;8.64;100.00;99727.22;6150605;23;20001;-77
2024/03/12 06:57:47;;;;;;;0.00;0.00;;;;;;;8.66;100.00;99722.31;6149404;23;19997;-76
2024/03/12 07:00:22;;;;;;;0.00;0.00;;;;;;;8.74;100.00;99719.88;6165434;23;20031;-77
2024/03/12 07:02:49;;;;;;;;;;;;;;;8.86;100.00;99733.28;6187530;23;20008;-73
2024/03/12 07:05:15;;;;;;;0.00;0.00;;;;;;;8.77;100.00;99704.91;6186565;23;19904;-75
2024/03/12 07:07:50;;;;;;;0.00;0.00;;;;;;;8.90;100.00;99719.91;6135644;23;20009;-73
2024/03/12 07:10:18;;;;;;;0.08;0.08;;;;;;;8.89;100.00;99697.28;6187827;23;20036;-73
2024/03/12 07:12:46;;;;;;;0.00;0.00;;;;;;;9.04;100.00;99706.56;6184452;23;20416;-72
2024/03/12 07:15:20;;;;;;;0.00;0.00;;;;;;;9.13;100.00;99715.81;6162992;23;20013;-74
2024/03/12 07:17:47;;;;;;;0.00;0.00;;;;;;;9.10;100.00;99697.28;6183142;23;20013;-74
2024/03/12 07:20:20;;;;;;;0.00;0.00;;;;;;;9.16;100.00;99696.16;6165199;23;20080;-74
2024/03/12 07:23:02;;;;;;;0.00;0.00;;;;;;;9.24;100.00;99695.63;6139475;23;20009;-73
2024/03/12 07:25:27;;;;;;;0.00;0.00;;;;;;;9.29;100.00;99702.13;6139218;23;20012;-75
2024/03/12 07:27:53;;;;;;;0.00;0.00;;;;;;;9.31;100.00;99698.06;6186733;23;20028;-74
2024/03/12 07:30:24;;;;;;;0.00;0.00;;;;;;;9.39;100.00;99707.59;6133853;23;20061;-72
2024/03/12 07:32:51;;;;;;;0.00;0.00;;;;;;;9.47;100.00;99714.41;6186474;23;20008;-74
2024/03/12 07:35:17;;;;;;;0.00;0.00;;;;;;;9.49;100.00;99707.59;6158419;23;20447;-73
2024/03/12 07:37:43;;;;;;;0.00;0.00;;;;;;;9.56;100.00;99713.56;6165645;23;19989;-72
2024/03/12 07:40:09;;;;;;;0.00;0.00;;;;;;;9.61;100.00;99710.81;6159443;23;20039;-73
2024/03/12 07:42:37;;;;;;;0.00;0.00;;;;;;;9.61;100.00;99710.81;6162060;23;20009;-73
2024/03/12 07:45:04;;;;;;;0.00;0.00;;;;;;;9.61;100.00;99716.28;6155806;23;20464;-73
2024/03/12 07:47:31;;;;;;;0.00;0.00;;;;;;;9.70;100.00;99718.44;6136949;23;20031;-74
2024/03/12 07:49:57;;;;;;;0.00;0.00;;;;;;;9.75;100.00;99722.00;6161910;23;20009;-73
2024/03/12 07:52:23;;;;;;;0.00;0.00;;;;;;;9.78;100.00;99723.31;6133967;23;20100;-74
2024/03/12 07:54:49;;;;;;;0.00;0.00;;;;;;;9.83;100.00;99728.78;6136602;23;20528;-74
2024/03/12 07:57:16;;;;;;;0.00;0.00;;;;;;;9.84;100.00;99732.31;6187401;23;20009;-73
2024/03/12 07:59:43;;;;;;;0.00;0.00;;;;;;;9.84;100.00;99735.88;6136110;23;20510;-74
2024/03/12 08:02:12;;;;;;;0.00;0.00;;;;;;;9.84;100.00;99745.97;6184525;23;20001;-75
2024/03/12 08:04:42;;;;;;;0.00;0.00;;;;;;;9.85;100.00;99742.97;6186301;23;20009;-73
2024/03/12 08:07:14;;;;;;;0.00;0.00;;;;;;;9.88;100.00;99734.22;6157606;23;20441;-74
2024/03/12 08:09:42;;;;;;;0.00;0.00;;;;;;;9.87;100.00;99729.88;6161456;23;19981;-74
2024/03/12 08:12:10;;;;;;;0.00;0.00;;;;;;;9.94;100.00;99741.31;6160859;23;20013;-72
2024/03/12 08:14:36;;;;;;;0.00;0.00;;;;;;;9.99;100.00;99731.44;6134964;23;20119;-73
2024/03/12 08:17:05;;;;;;;0.00;0.00;;;;;;;10.03;100.00;99738.00;6162306;23;20032;-74
2024/03/12 08:19:31;;;;;;;0.00;0.00;;;;;;;9.96;100.00;99728.19;6184427;23;19985;-72
2024/03/12 08:21:57;;;;;;;0.00;0.00;;;;;;;10.06;100.00;99723.78;6196019;23;20039;-74
2024/03/12 08:24:25;;;;;;;0.00;0.00;;;;;;;10.06;100.00;99721.03;6165312;23;20005;-74
2024/03/12 08:26:51;;;;;;;0.00;0.00;;;;;;;10.12;100.00;99714.47;6187338;23;20009;-73
2024/03/12 08:29:16;;;;;;;0.00;0.00;;;;;;;10.09;100.00;99715.84;6137193;23;20455;-73
2024/03/12 08:31:51;;;;;;;0.00;0.00;;;;;;;10.20;100.00;99733.00;6157327;23;20005;-74
2024/03/12 08:34:16;;;;;;;;;;;;;;;10.26;100.00;99731.88;6186385;23;20005;-73
2024/03/12 08:36:42;;;;;;;0.00;0.00;;;;;;;10.31;100.00;99733.78;6158310;23;19954;-74
2024/03/12 08:39:11;;;;;;;0.00;0.00;;;;;;;10.22;100.00;99730.81;6160166;23;20017;-74
2024/03/12 08:41:40;;;;;;;0.00;0.00;;;;;;;10.34;100.00;99735.16;6185898;23;20011;-75
2024/03/12 08:44:06;;;;;;;0.00;0.00;;;;;;;10.36;100.00;99730.22;6182844;23;20080;-73
2024/03/12 08:46:33;;;;;;;0.00;0.00;;;;;;;10.38;100.00;99739.78;6185482;23;20000;-72
2024/03/12 08:48:59;;;;;;;0.00;0.00;;;;;;;10.37;100.00;99742.81;6181760;23;20015;-74
2024/03/12 08:51:25;;;;;;;0.00;0.00;;;;;;;10.38;100.00;99733.50;6136823;23;20053;-74
2024/03/12 08:53:52;;;;;;;0.00;0.00;;;;;;;10.39;100.00;99751.53;6129804;23;20347;-75
2024/03/12 08:56:27;;;;;;;0.00;0.00;;;;;;;10.46;100.00;99747.38;6164923;23;20382;-75
2024/03/12 08:58:52;;;;;;;0.00;0.00;;;;;;;10.53;100.00;99752.56;6136576;23;20013;-76
2024/03/12 09:01:18;;;;;;;0.00;0.00;;;;;;;10.48;100.00;99741.63;6189549;23;20028;-75
2024/03/12 09:03:43;;;;;;;0.00;0.00;;;;;;;10.48;100.00;99744.38;6186726;23;20016;-74
2024/03/12 09:06:09;;;;;;;0.00;0.00;;;;;;;10.60;100.00;99763.16;6159697;23;20036;-75
2024/03/12 09:08:39;;;;;;;0.00;0.00;;;;;;;10.61;100.00;99760.13;6160614;23;20024;-75
2024/03/12 09:11:05;;;;;;;0.00;0.00;;;;;;;10.59;100.00;99756.88;6136010;23;20056;-75
2024/03/12 09:13:31;;;;;;;0.00;0.00;;;;;;;10.64;100.00;99754.13;6134829;23;20013;-75
2024/03/12 09:15:57;;;;;;;0.00;0.00;;;;;;;10.72;100.00;99757.34;6133823;23;20016;-75
2024/03/12 09:18:23;;;;;;;0.00;0.00;;;;;;;10.77;100.00;99768.25;6186133;23;20096;-76
2024/03/12 09:20:52;;;;;;;0.00;0.00;;;;;;;10.81;100.00;99767.41;6136913;23;20013;-75
2024/03/12 09:23:19;;;;;;;0.00;0.00;;;;;;;10.82;100.00;99776.44;6161273;23;20067;-76
2024/03/12 09:25:45;;;;;;;0.00;0.00;;;;;;;10.84;100.00;99785.19;6187021;23;20009;-74
2024/03/12 09:28:10;;;;;;;0.00;0.00;;;;;;;10.74;100.00;99763.38;6159326;23;20005;-74
2024/03/12 09:30:36;;;;;;;0.00;0.00;;;;;;;10.77;100.00;99765.53;6189396;23;20020;-75
2024/03/12 09:33:02;;;;;;;0.00;0.00;;;;;;;10.78;100.00;99761.69;6164921;23;20005;-74
2024/03/12 09:35:28;;;;;;;0.00;0.00;;;;;;;10.74;100.00;99764.16;6160026;23;20005;-74
2024/03/12 09:37:53;;;;;;;0.00;0.00;;;;;;;10.65;100.00;99749.47;6163276;23;20409;-75
2024/03/12 09:40:19;;;;;;;0.00;0.00;;;;;;;10.75;100.00;99770.47;6134179;23;20020;-75
2024/03/12 09:42:47;;;;;;;0.00;0.00;;;;;;;10.65;100.00;99744.81;6190344;23;20009;-75
2024/03/12 09:45:13;;;;;;;0.00;0.00;;;;;;;10.81;100.00;99774.81;6185225;23;20000;-75
2024/03/12 09:47:40;;;;;;;0.00;0.00;;;;;;;10.84;100.00;99768.75;6163780;23;19997;-74
2024/03/12 09:50:11;;;;;;;0.00;0.00;;;;;;;10.95;100.00;99773.06;6189729;23;20005;-74
2024/03/12 09:52:38;;;;;;;0.00;0.00;;;;;;;11.03;100.00;99765.38;6187486;23;20000;-75
2024/03/12 09:55:10;;;;;;;0.00;0.00;;;;;;;10.95;100.00;99753.94;6163752;23;20036;-75
2024/03/12 09:57:44;;;;;;;0.00;0.00;;;;;;;11.02;100.00;99764.53;6187075;23;20083;-75
2024/03/12 10:00:22;;;;;;;0.00;0.00;;;;;;;11.08;100.00;99752.47;6165207;23;20009;-76
2024/03/12 10:02:51;;;;;;;0.00;0.00;;;;;;;11.20;100.00;99762.19;6188734;23;20080;-75
2024/03/12 10:05:21;;;;;;;0.00;0.00;;;;;;;11.26;100.00;99775.56;6191889;23;20056;-75
2024/03/12 10:08:06;;;;;;;0.00;0.00;;;;;;;11.33;100.00;99769.75;6158824;23;20058;-75
2024/03/12 10:10:37;;;;;;;0.00;0.00;;;;;;;11.39;100.00;99773.25;6189894;23;20015;-75
2024/03/12 10:13:04;;;;;;;0.10;0.10;;;;;;;11.41;100.00;99779.28;6162230;23;20069;-74
2024/03/12 10:15:30;;;;;;;0.00;0.00;;;;;;;11.36;100.00;99780.16;6189162;23;19997;-75
2024/03/12 10:18:00;;;;;;;0.00;0.00;;;;;;;11.33;100.00;99764.28;6136531;23;20005;-75
2024/03/12 10:20:26;;;;;;;0.00;0.00;;;;;;;11.31;100.00;99777.44;6137493;23;19989;-75
2024/03/12 10:23:09;;;;;;;0.00;0.00;;;;;;;11.42;100.00;99768.03;6187981;23;20005;-75
2024/03/12 10:25:37;;;;;;;0.00;0.00;;;;;;;11.53;100.00;99768.75;6162277;23;20008;-74
2024/03/12 10:28:05;;;;;;;0.00;0.00;;;;;;;11.65;100.00;99782.88;6140974;23;20075;-76
2024/03/12 10:30:31;;;;;;;0.00;0.00;;;;;;;11.57;100.00;99775.28;6188474;23;20079;-76
2024/03/12 10:32:57;;;;;;;0.00;0.00;;;;;;;11.62;100.00;99778.00;6163460;23;20017;-75
2024/03/12 10:35:23;;;;;;;0.00;0.00;;;;;;;11.67;100.00;99775.19;6160556;23;20001;-76
2024/03/12 10:37:51;;;;;;;0.00;0.00;;;;;;;11.78;100.00;99783.31;6139847;23;20036;-76
2024/03/12 10:40:19;;;;;;;0.00;0.00;;;;;;;11.72;100.00;99787.22;6188155;23;20020;-75
2024/03/12 10:43:03;;;;;;;0.00;0.00;;;;;;;11.67;100.00;99791.63;6138416;23;20031;-75
2024/03/12 10:45:29;;;;;;;0.00;0.00;;;;;;;11.73;100.00;99778.69;6160403;23;20007;-77
2024/03/12 10:47:56;;;;;;;0.00;0.00;;;;;;;11.82;100.00;99787.09;6161330;23;20009;-75
2024/03/12 10:50:31;;;;;;;0.00;0.00;;;;;;;11.92;100.00;99781.50;6186720;23;20012;-75
2024/03/12 10:52:57;;;;;;;0.00;0.00;;;;;;;12.00;100.00;99771.84;6188804;23;20088;-76
2024/03/12 10:55:23;;;;;;;0.00;0.00;;;;;;;12.13;100.00;99803.22;6160804;23;20012;-75
2024/03/12 10:57:54;;;;;;;0.00;0.00;;;;;;;12.14;100.00;99785.69;6164252;23;20017;-75
2024/03/12 11:00:20;;;;;;;0.00;0.00;;;;;;;12.34;100.00;99793.66;6186943;23;20019;-75
2024/03/12 11:02:56;;;;;;;0.00;0.00;;;;;;;12.44;100.00;99786.41;6189108;23;20005;-75
2024/03/12 11:05:27;;;;;;;0.00;0.00;;;;;;;12.45;100.00;99793.53;6135284;23;20029;-76
2024/03/12 11:07:57;;;;;;;0.00;0.00;;;;;;;12.40;100.00;99787.00;6163255;23;20015;-76
2024/03/12 11:10:26;;;;;;;0.00;0.00;;;;;;;12.42;100.00;99794.13;6187145;23;20008;-76
2024/03/12 11:12:54;;;;;;;0.00;0.00;;;;;;;12.48;100.00;99792.94;6189221;23;20036;-75
2024/03/12 11:15:20;;;;;;;0.00;0.00;;;;;;;12.57;100.00;99802.13;6162068;23;20439;-76
2024/03/12 11:17:48;;;;;;;0.00;0.00;;;;;;;12.61;100.00;99819.66;6164583;23;20115;-75
2024/03/12 11:20:28;;;;;;;0.00;0.00;;;;;;;12.48;100.00;99792.94;6196672;23;20005;-76
2024/03/12 11:22:56;;;;;;;0.00;0.00;;;;;;;12.65;100.00;99798.75;6173153;23;20005;-76
2024/03/12 11:25:43;;;;;;;0.00;0.00;;;;;;;12.63;100.00;99800.97;6140709;23;20040;-77
2024/03/12 11:28:22;;;;;;;0.00;0.00;;;;;;;12.71;100.00;99799.50;6165964;23;20129;-76
2024/03/12 11:30:54;;;;;;;0.00;0.00;;;;;;;12.65;100.00;99787.78;6189522;23;20005;-76
2024/03/12 11:33:48;;;;;;;0.00;0.00;;;;;;;12.91;100.00;99806.63;6185120;23;20008;-76
2024/03/12 11:36:17;;;;;;;0.00;0.00;;;;;;;13.02;100.00;99805.34;6160668;23;20001;-76
2024/03/12 11:38:52;;;;;;;0.00;0.00;;;;;;;13.01;100.00;99795.50;6184932;23;20028;-75
2024/03/12 11:41:19;;;;;;;0.00;0.00;;;;;;;13.15;100.00;99811.22;6161613;23;20064;-75
2024/03/12 11:43:44;;;;;;;0.00;0.00;;;;;;;13.16;100.00;99796.38;6186323;23;20148;-75
2024/03/12 11:46:15;;;;;;;0.00;0.00;;;;;;;13.25;100.00;99805.56;6186950;23;20405;-76